createdAt,value
2023-03-11T00:01:12.344Z,98274.00
2023-03-11T00:03:41.160Z,98277.56
2023-03-11T00:06:09.809Z,98290.38
2023-03-11T00:08:38.421Z,98282.75
2023-03-11T00:11:07.067Z,98302.25
2023-03-11T00:13:36.954Z,98298.91
2023-03-11T00:16:06.750Z,98273.50
2023-03-11T00:18:36.698Z,98305.03
2023-03-11T00:21:06.107Z,98289.06
2023-03-11T00:23:35.679Z,98298.75
2023-03-11T00:26:04.434Z,98317.56
2023-03-11T00:28:34.438Z,98312.59
2023-03-11T00:31:04.560Z,98333.81
2023-03-11T00:33:33.295Z,98332.91
2023-03-11T00:36:03.883Z,98328.00
2023-03-11T00:38:32.640Z,98336.56
2023-03-11T00:41:02.140Z,98340.03
2023-03-11T00:43:33.355Z,98347.75
2023-03-11T00:46:02.085Z,98340.13
2023-03-11T00:48:30.834Z,98352.84
2023-03-11T00:50:59.565Z,98340.13
2023-03-11T00:53:29.585Z,98344.38
2023-03-11T00:55:58.215Z,98340.22
2023-03-11T00:58:29.147Z,98339.41
2023-03-11T01:00:59.027Z,98336.16
2023-03-11T01:03:27.671Z,98343.88
2023-03-11T01:05:56.399Z,98346.41
2023-03-11T01:08:29.491Z,98342.28
2023-03-11T01:10:58.450Z,98359.22
2023-03-11T01:13:28.906Z,98350.78
2023-03-11T01:15:58.449Z,98369.38
2023-03-11T01:18:27.322Z,98377.00
2023-03-11T01:20:56.309Z,98377.09
2023-03-11T01:23:25.008Z,98372.03
2023-03-11T01:25:54.979Z,98361.16
2023-03-11T01:28:23.634Z,98364.63
2023-03-11T01:30:52.923Z,98357.91
2023-03-11T01:33:22.888Z,98353.66
2023-03-11T01:35:51.614Z,98345.22
2023-03-11T01:38:20.266Z,98342.66
2023-03-11T01:40:51.959Z,98335.94
2023-03-11T01:43:54.613Z,98334.34
2023-03-11T01:46:36.609Z,98339.44
2023-03-11T01:49:06.975Z,98345.31
2023-03-11T01:51:41.040Z,98352.13
2023-03-11T01:54:14.923Z,98357.22
2023-03-11T01:56:45.891Z,98364.84
2023-03-11T01:59:21.233Z,98360.66
2023-03-11T02:01:56.615Z,98372.44
2023-03-11T02:04:25.473Z,98381.88
2023-03-11T02:06:56.883Z,98386.16
2023-03-11T02:09:27.156Z,98394.56
2023-03-11T02:11:56.829Z,98386.97
2023-03-11T02:14:30.127Z,98396.22
2023-03-11T02:16:59.936Z,98390.34
2023-03-11T02:19:42.794Z,98388.69
2023-03-11T02:22:13.129Z,98390.50
2023-03-11T02:25:06.021Z,98388.88
2023-03-11T02:27:41.257Z,98387.38
2023-03-11T02:30:15.009Z,98383.09
2023-03-11T02:32:48.562Z,98380.66
2023-03-11T02:35:19.664Z,98377.31
2023-03-11T02:37:50.573Z,98379.03
2023-03-11T02:40:45.736Z,98380.06
2023-03-11T02:43:19.759Z,98365.81
2023-03-11T02:45:49.975Z,98377.63
2023-03-11T02:48:20.771Z,98366.66
2023-03-11T02:50:49.500Z,98380.97
2023-03-11T02:53:21.166Z,98378.34
2023-03-11T02:55:49.784Z,98380.06
2023-03-11T02:58:19.916Z,98384.44
2023-03-11T03:00:48.582Z,98395.41
2023-03-11T03:03:19.477Z,98397.22
2023-03-11T03:05:48.931Z,98392.16
2023-03-11T03:08:17.598Z,98404.84
2023-03-11T03:10:46.381Z,98394.69
2023-03-11T03:13:15.149Z,98397.31
2023-03-11T03:15:45.238Z,98394.88
2023-03-11T03:18:13.935Z,98401.69
2023-03-11T03:20:42.640Z,98402.38
2023-03-11T03:23:11.334Z,98411.75
2023-03-11T03:25:43.315Z,98407.47
2023-03-11T03:28:13.194Z,98405.88
2023-03-11T03:30:47.595Z,98405.03
2023-03-11T03:33:16.617Z,98415.28
2023-03-11T03:35:47.142Z,98427.97
2023-03-11T03:38:21.179Z,98428.88
2023-03-11T03:40:52.123Z,98424.81
2023-03-11T03:43:22.862Z,98427.34
2023-03-11T03:46:00.271Z,98430.63
2023-03-11T03:48:32.580Z,98425.75
2023-03-11T03:51:08.134Z,98436.81
2023-03-11T03:53:38.904Z,98428.41
2023-03-11T03:56:10.257Z,98426.75
2023-03-11T03:58:40.122Z,98431.94
2023-03-11T04:01:11.941Z,98435.38
2023-03-11T04:03:42.245Z,98435.50
2023-03-11T04:06:20.280Z,98435.59
2023-03-11T04:08:54.581Z,98448.28
2023-03-11T04:11:27.963Z,98448.28
2023-03-11T04:13:57.098Z,98442.38
2023-03-11T04:16:27.534Z,98443.22
2023-03-11T04:19:02.136Z,98444.00
2023-03-11T04:21:30.835Z,98445.00
2023-03-11T04:23:59.742Z,98451.00
2023-03-11T04:26:33.231Z,98454.38
2023-03-11T04:29:02.339Z,98454.47
2023-03-11T04:31:36.329Z,98450.28
2023-03-11T04:34:07.793Z,98458.81
2023-03-11T04:36:38.093Z,98458.03
2023-03-11T04:39:07.484Z,98465.72
2023-03-11T04:41:41.276Z,98467.44
2023-03-11T04:44:12.193Z,98475.16
2023-03-11T04:46:42.303Z,98476.88
2023-03-11T04:49:11.979Z,98473.53
2023-03-11T04:51:41.063Z,98470.19
2023-03-11T04:54:09.936Z,98467.75
2023-03-11T04:56:38.592Z,98459.50
2023-03-11T04:59:08.659Z,98461.44
2023-03-11T05:01:39.495Z,98466.69
2023-03-11T05:04:12.887Z,98471.06
2023-03-11T05:06:42.269Z,98468.69
2023-03-11T05:09:10.970Z,98476.50
2023-03-11T05:11:41.872Z,98480.78
2023-03-11T05:14:12.297Z,98487.53
2023-03-11T05:16:41.637Z,98495.16
2023-03-11T05:19:26.712Z,98500.34
2023-03-11T05:21:55.597Z,98488.66
2023-03-11T05:24:26.751Z,98493.81
2023-03-11T05:26:55.850Z,98494.81
2023-03-11T05:29:26.346Z,98506.78
2023-03-11T05:31:56.119Z,98510.22
2023-03-11T05:34:26.645Z,98507.88
2023-03-11T05:36:55.479Z,98518.91
2023-03-11T05:39:25.119Z,98517.13
2023-03-11T05:41:53.789Z,98520.56
2023-03-11T05:44:22.493Z,98514.84
2023-03-11T05:46:51.859Z,98517.47
2023-03-11T05:49:21.595Z,98524.34
2023-03-11T05:51:56.179Z,98522.75
2023-03-11T05:54:27.719Z,98526.19
2023-03-11T05:56:56.702Z,98518.66
2023-03-11T05:59:26.284Z,98522.00
2023-03-11T06:01:59.730Z,98520.38
2023-03-11T06:04:28.645Z,98516.22
2023-03-11T06:06:59.429Z,98517.22
2023-03-11T06:09:31.529Z,98515.50
2023-03-11T06:12:00.475Z,98513.84
2023-03-11T06:14:38.718Z,98520.66
2023-03-11T06:17:07.821Z,98525.84
2023-03-11T06:19:36.474Z,98539.31
2023-03-11T06:22:06.699Z,98539.41
2023-03-11T06:24:35.302Z,98536.88
2023-03-11T06:27:04.251Z,98536.06
2023-03-11T06:29:33.758Z,98540.25
2023-03-11T06:32:02.443Z,98541.03
2023-03-11T06:34:31.477Z,98551.19
2023-03-11T06:37:01.212Z,98552.84
2023-03-11T06:39:31.314Z,98557.91
2023-03-11T06:42:00.069Z,98561.34
2023-03-11T06:44:30.870Z,98573.22
2023-03-11T06:46:59.782Z,98574.13
2023-03-11T06:49:28.425Z,98577.66
2023-03-11T06:51:57.079Z,98578.53
2023-03-11T06:54:26.091Z,98584.34
2023-03-11T06:56:56.210Z,98589.22
2023-03-11T06:59:25.018Z,98598.47
2023-03-11T07:01:54.640Z,98595.94
2023-03-11T07:04:23.837Z,98600.09
2023-03-11T07:06:52.752Z,98608.44
2023-03-11T07:09:25.257Z,98602.56
2023-03-11T07:11:55.779Z,98618.59
2023-03-11T07:14:30.953Z,98622.75
2023-03-11T07:16:59.808Z,98625.28
2023-03-11T07:19:34.034Z,98624.38
2023-03-11T07:22:02.664Z,98622.56
2023-03-11T07:24:31.504Z,98623.22
2023-03-11T07:27:01.698Z,98630.72
2023-03-11T07:29:30.453Z,98636.59
2023-03-11T07:31:59.176Z,98635.69
2023-03-11T07:34:27.902Z,98651.72
2023-03-11T07:36:56.708Z,98651.72
2023-03-11T07:39:25.845Z,98650.13
2023-03-11T07:41:54.472Z,98660.97
2023-03-11T07:44:24.614Z,98661.72
2023-03-11T07:46:53.219Z,98661.63
2023-03-11T07:49:21.871Z,98666.50
2023-03-11T07:51:50.443Z,98665.53
2023-03-11T07:54:19.332Z,98671.31
2023-03-11T07:56:47.988Z,98675.50
2023-03-11T07:59:16.914Z,98676.34
2023-03-11T08:01:47.400Z,98685.47
2023-03-11T08:04:17.658Z,98687.00
2023-03-11T08:06:48.232Z,98683.22
2023-03-11T08:09:17.620Z,98695.34
2023-03-11T08:11:47.501Z,98698.22
2023-03-11T08:14:17.364Z,98700.41
2023-03-11T08:16:47.546Z,98707.75
2023-03-11T08:19:16.216Z,98709.94
2023-03-11T08:21:44.994Z,98711.38
2023-03-11T08:24:15.279Z,98722.25
2023-03-11T08:26:44.439Z,98727.16
2023-03-11T08:29:13.040Z,98726.94
2023-03-11T08:31:41.704Z,98715.91
2023-03-11T08:34:12.901Z,98720.59
2023-03-11T08:36:41.855Z,98721.84
2023-03-11T08:39:10.551Z,98718.22
2023-03-11T08:41:39.222Z,98714.19
2023-03-11T08:44:07.904Z,98724.78
2023-03-11T08:46:39.356Z,98720.13
2023-03-11T08:49:08.419Z,98731.66
2023-03-11T08:51:38.731Z,98728.19
2023-03-11T08:54:07.656Z,98730.44
2023-03-11T08:56:36.258Z,98730.28
2023-03-11T08:59:04.892Z,98727.53
2023-03-11T09:01:33.595Z,98734.03
2023-03-11T09:04:02.251Z,98740.56
2023-03-11T09:06:31.347Z,98729.19
2023-03-11T09:09:01.492Z,98739.00
2023-03-11T09:11:30.339Z,98728.50
2023-03-11T09:13:58.971Z,98728.94
2023-03-11T09:16:27.706Z,98734.47
2023-03-11T09:18:56.368Z,98735.81
2023-03-11T09:21:24.971Z,98725.34
2023-03-11T09:23:53.590Z,98725.94
2023-03-11T09:26:23.554Z,98733.41
2023-03-11T09:28:52.145Z,98735.84
2023-03-11T09:31:20.857Z,98734.84
2023-03-11T09:33:52.805Z,98730.53
2023-03-11T09:36:23.120Z,98723.72
2023-03-11T09:38:51.740Z,98725.66
2023-03-11T09:41:31.152Z,98730.03
2023-03-11T09:44:22.738Z,98728.59
2023-03-11T09:47:34.476Z,98731.44
2023-03-11T09:50:23.999Z,98737.53
2023-03-11T09:53:19.655Z,98740.09
2023-03-11T09:55:50.650Z,98731.72
2023-03-11T09:58:32.434Z,98730.53
2023-03-11T10:01:02.149Z,98734.22
2023-03-11T10:03:35.101Z,98728.09
2023-03-11T10:06:14.917Z,98722.03
2023-03-11T10:08:53.504Z,98710.69
2023-03-11T10:11:45.346Z,98716.50
2023-03-11T10:14:42.851Z,98718.94
2023-03-11T10:17:25.678Z,98727.25
2023-03-11T10:20:01.943Z,98729.19
2023-03-11T10:22:41.018Z,98731.41
2023-03-11T10:25:16.194Z,98732.31
2023-03-11T10:27:49.875Z,98741.09
2023-03-11T10:30:29.136Z,98744.06
2023-03-11T10:33:03.387Z,98731.75
2023-03-11T10:35:40.432Z,98739.81
2023-03-11T10:38:18.243Z,98747.63
2023-03-11T10:40:49.654Z,98735.91
2023-03-11T10:43:22.424Z,98740.22
2023-03-11T10:45:53.471Z,98743.50
2023-03-11T10:48:25.348Z,98751.03
2023-03-11T10:51:02.510Z,98746.63
2023-03-11T10:53:32.183Z,98744.19
2023-03-11T10:56:01.360Z,98739.09
2023-03-11T10:58:31.988Z,98746.03
2023-03-11T11:01:12.938Z,98741.13
2023-03-11T11:03:43.808Z,98759.16
2023-03-11T11:06:25.362Z,98754.41
2023-03-11T11:09:16.110Z,98757.25
2023-03-11T11:12:02.196Z,98753.38
2023-03-11T11:14:47.925Z,98758.78
2023-03-11T11:17:26.515Z,98760.81
2023-03-11T11:19:58.060Z,98762.75
2023-03-11T11:22:27.306Z,98762.84
2023-03-11T11:24:57.311Z,98760.50
2023-03-11T11:27:28.589Z,98752.25
2023-03-11T11:30:18.045Z,98748.91
2023-03-11T11:32:48.130Z,98751.13
2023-03-11T11:35:19.848Z,98746.66
2023-03-11T11:37:51.118Z,98753.41
2023-03-11T11:40:30.397Z,98747.34
2023-03-11T11:43:04.845Z,98758.38
2023-03-11T11:45:39.811Z,98749.00
2023-03-11T11:48:19.317Z,98756.63
2023-03-11T11:50:53.673Z,98753.88
2023-03-11T11:53:32.856Z,98750.22
2023-03-11T11:56:03.053Z,98748.19
2023-03-11T11:58:32.865Z,98745.53
2023-03-11T12:01:16.716Z,98752.25
2023-03-11T12:04:27.113Z,98750.72
2023-03-11T12:07:53.862Z,98744.22
2023-03-11T12:10:29.598Z,98751.16
2023-03-11T12:13:25.726Z,98745.31
2023-03-11T12:16:02.816Z,98730.84
2023-03-11T12:18:38.184Z,98740.13
2023-03-11T12:21:23.824Z,98734.22
2023-03-11T12:24:09.878Z,98735.88
2023-03-11T12:26:41.666Z,98740.03
2023-03-11T12:29:19.935Z,98731.47
2023-03-11T12:31:49.682Z,98738.09
2023-03-11T12:34:22.246Z,98728.72
2023-03-11T12:36:54.341Z,98724.25
2023-03-11T12:39:28.830Z,98731.78
2023-03-11T12:42:22.462Z,98729.94
2023-03-11T12:44:53.897Z,98724.84
2023-03-11T12:47:28.979Z,98732.38
2023-03-11T12:50:37.072Z,98729.84
2023-03-11T12:53:07.068Z,98724.84
2023-03-11T12:55:38.052Z,98719.75
2023-03-11T12:58:48.690Z,98710.50
2023-03-11T13:01:50.842Z,98706.31
2023-03-11T13:04:31.966Z,98712.22
2023-03-11T13:07:37.665Z,98713.94
2023-03-11T13:10:18.791Z,98718.94
2023-03-11T13:12:49.881Z,98720.56
2023-03-11T13:15:37.992Z,98718.94
2023-03-11T13:18:19.341Z,98739.63
2023-03-11T13:20:57.180Z,98737.19
2023-03-11T13:23:36.752Z,98742.38
2023-03-11T13:26:42.039Z,98746.75
2023-03-11T13:29:45.084Z,98751.84
2023-03-11T13:32:37.459Z,98764.56
2023-03-11T13:35:23.846Z,98747.59
2023-03-11T13:38:14.552Z,98757.84
2023-03-11T13:40:44.776Z,98775.66
2023-03-11T13:43:18.943Z,98768.97
2023-03-11T13:45:54.790Z,98774.13
2023-03-11T13:48:30.054Z,98768.25
2023-03-11T13:51:03.057Z,98766.72
2023-03-11T13:53:37.319Z,98770.09
2023-03-11T13:56:06.831Z,98763.38
2023-03-11T13:58:36.768Z,98766.81
2023-03-11T14:01:05.861Z,98777.91
2023-03-11T14:03:42.412Z,98764.38
2023-03-11T14:06:19.328Z,98765.38
2023-03-11T14:08:56.240Z,98766.31
2023-03-11T14:11:29.555Z,98769.06
2023-03-11T14:13:59.627Z,98770.69
2023-03-11T14:16:36.113Z,98764.97
2023-03-11T14:19:08.772Z,98775.97
2023-03-11T14:21:37.807Z,98786.16
2023-03-11T14:24:06.994Z,98787.09
2023-03-11T14:26:36.869Z,98799.09
2023-03-11T14:29:13.544Z,98790.66
2023-03-11T14:31:44.458Z,98798.28
2023-03-11T14:34:19.634Z,98797.44
2023-03-11T14:36:54.294Z,98800.81
2023-03-11T14:39:29.390Z,98797.44
2023-03-11T14:42:05.820Z,98800.81
2023-03-11T14:44:39.946Z,98796.53
2023-03-11T14:47:17.475Z,98805.09
2023-03-11T14:49:49.039Z,98806.03
2023-03-11T14:52:22.904Z,98799.28
2023-03-11T14:54:53.842Z,98802.75
2023-03-11T14:57:28.971Z,98799.50
2023-03-11T14:59:59.893Z,98785.13
2023-03-11T15:02:43.027Z,98793.69
2023-03-11T15:05:20.360Z,98787.78
2023-03-11T15:07:52.674Z,98784.41
2023-03-11T15:10:21.658Z,98782.69
2023-03-11T15:12:50.286Z,98771.69
2023-03-11T15:15:30.301Z,98764.97
2023-03-11T15:18:01.655Z,98770.06
2023-03-11T15:20:34.109Z,98770.06
2023-03-11T15:23:05.093Z,98785.34
2023-03-11T15:25:35.471Z,98789.50
2023-03-11T15:28:24.316Z,98780.31
2023-03-11T15:31:31.352Z,98787.25
2023-03-11T15:34:35.365Z,98784.94
2023-03-11T15:37:21.252Z,98785.94
2023-03-11T15:39:53.168Z,98790.19
2023-03-11T15:42:25.560Z,98792.84
2023-03-11T15:45:12.114Z,98791.31
2023-03-11T15:47:42.528Z,98796.50
2023-03-11T15:50:40.136Z,98804.22
2023-03-11T15:53:15.548Z,98805.13
2023-03-11T15:55:44.378Z,98808.69
2023-03-11T15:58:16.722Z,98795.28
2023-03-11T16:00:50.295Z,98797.81
2023-03-11T16:03:21.351Z,98798.81
2023-03-11T16:05:50.523Z,98797.06
2023-03-11T16:08:19.113Z,98817.44
2023-03-11T16:10:47.781Z,98827.63
2023-03-11T16:13:17.468Z,98827.63
2023-03-11T16:15:47.087Z,98821.72
2023-03-11T16:18:15.926Z,98821.00
2023-03-11T16:20:48.462Z,98824.56
2023-03-11T16:23:21.615Z,98838.19
2023-03-11T16:25:51.513Z,98834.91
2023-03-11T16:28:20.187Z,98845.28
2023-03-11T16:30:52.204Z,98846.41
2023-03-11T16:33:20.843Z,98844.06
2023-03-11T16:35:50.926Z,98839.13
2023-03-11T16:38:20.583Z,98840.03
2023-03-11T16:40:58.220Z,98841.13
2023-03-11T16:43:27.322Z,98842.03
2023-03-11T16:45:56.104Z,98836.22
2023-03-11T16:48:25.246Z,98843.94
2023-03-11T16:50:55.280Z,98864.41
2023-03-11T16:53:25.210Z,98854.31
2023-03-11T16:55:54.648Z,98852.88
2023-03-11T16:58:23.487Z,98850.53
2023-03-11T17:00:52.390Z,98866.78
2023-03-11T17:03:22.098Z,98858.53
2023-03-11T17:05:51.011Z,98862.06
2023-03-11T17:08:23.509Z,98863.81
2023-03-11T17:10:52.955Z,98864.81
2023-03-11T17:13:21.585Z,98882.59
2023-03-11T17:15:59.481Z,98885.34
2023-03-11T17:18:28.589Z,98882.06
2023-03-11T17:20:57.226Z,98883.97
2023-03-11T17:23:27.295Z,98887.53
2023-03-11T17:25:55.990Z,98885.88
2023-03-11T17:28:24.587Z,98893.50
2023-03-11T17:30:53.211Z,98892.75
2023-03-11T17:33:21.860Z,98902.94
2023-03-11T17:35:50.591Z,98901.41
2023-03-11T17:38:19.283Z,98904.13
2023-03-11T17:40:49.346Z,98901.03
2023-03-11T17:43:18.110Z,98901.31
2023-03-11T17:45:46.895Z,98900.75
2023-03-11T17:48:15.608Z,98910.38
2023-03-11T17:50:44.302Z,98907.22
2023-03-11T17:53:13.077Z,98912.47
2023-03-11T17:55:42.279Z,98914.47
2023-03-11T17:58:12.492Z,98918.88
2023-03-11T18:00:41.100Z,98922.50
2023-03-11T18:03:09.828Z,98918.44
2023-03-11T18:05:39.666Z,98926.88
2023-03-11T18:08:08.358Z,98923.50
2023-03-11T18:10:37.054Z,98923.59
2023-03-11T18:13:05.834Z,98926.94
2023-03-11T18:15:35.890Z,98927.97
2023-03-11T18:18:04.527Z,98928.94
2023-03-11T18:20:33.168Z,98932.47
2023-03-11T18:23:01.852Z,98937.66
2023-03-11T18:25:30.458Z,98941.19
2023-03-11T18:27:59.246Z,98944.72
2023-03-11T18:30:28.066Z,98944.78
2023-03-11T18:32:58.098Z,98952.41
2023-03-11T18:35:26.950Z,98950.78
2023-03-11T18:37:55.602Z,98956.84
2023-03-11T18:40:24.373Z,98969.63
2023-03-11T18:42:53.901Z,98966.50
2023-03-11T18:45:22.608Z,98960.88
2023-03-11T18:47:51.262Z,98956.88
2023-03-11T18:50:21.457Z,98956.16
2023-03-11T18:52:52.106Z,98952.94
2023-03-11T18:55:21.009Z,98958.22
2023-03-11T18:57:49.772Z,98964.28
2023-03-11T19:00:22.436Z,98952.56
2023-03-11T19:02:55.395Z,98953.53
2023-03-11T19:05:25.482Z,98952.00
2023-03-11T19:07:54.113Z,98954.72
2023-03-11T19:10:22.745Z,98961.66
2023-03-11T19:12:51.780Z,98960.16
2023-03-11T19:15:21.203Z,98960.34
2023-03-11T19:18:04.369Z,98963.75
2023-03-11T19:20:37.238Z,98966.47
2023-03-11T19:23:06.275Z,98966.66
2023-03-11T19:25:35.468Z,98969.31
2023-03-11T19:28:04.338Z,98969.50
2023-03-11T19:30:33.161Z,98974.56
2023-03-11T19:33:01.919Z,98983.06
2023-03-11T19:35:30.718Z,98978.16
2023-03-11T19:38:00.819Z,98985.88
2023-03-11T19:40:31.569Z,98975.06
2023-03-11T19:43:00.310Z,98973.59
2023-03-11T19:45:31.120Z,98979.63
2023-03-11T19:48:00.747Z,98979.63
2023-03-11T19:50:29.416Z,98992.31
2023-03-11T19:52:58.100Z,98994.22
2023-03-11T19:55:28.272Z,98995.34
2023-03-11T19:57:56.943Z,98989.63
2023-03-11T20:00:26.231Z,98990.50
2023-03-11T20:02:56.834Z,98989.78
2023-03-11T20:05:25.624Z,98999.94
2023-03-11T20:07:54.272Z,99007.66
2023-03-11T20:10:24.872Z,99007.84
2023-03-11T20:13:02.198Z,99003.72
2023-03-11T20:15:31.966Z,99013.88
2023-03-11T20:18:01.357Z,99009.78
2023-03-11T20:20:30.631Z,99009.06
2023-03-11T20:22:59.691Z,99013.28
2023-03-11T20:25:31.086Z,99020.97
2023-03-11T20:28:02.341Z,99014.34
2023-03-11T20:30:31.094Z,99020.25
2023-03-11T20:32:59.819Z,99022.88
2023-03-11T20:35:28.669Z,99026.22
2023-03-11T20:37:57.295Z,99028.75
2023-03-11T20:40:26.162Z,99042.31
2023-03-11T20:42:54.900Z,99033.97
2023-03-11T20:45:25.006Z,99034.94
2023-03-11T20:47:54.216Z,99038.44
2023-03-11T20:50:23.727Z,99036.97
2023-03-11T20:52:52.939Z,99041.44
2023-03-11T20:55:22.733Z,99039.88
2023-03-11T20:57:51.445Z,99044.06
2023-03-11T21:00:21.031Z,99044.13
2023-03-11T21:02:51.201Z,99042.47
2023-03-11T21:05:20.359Z,99045.03
2023-03-11T21:07:49.982Z,99038.31
2023-03-11T21:10:19.268Z,99058.66
2023-03-11T21:12:47.961Z,99046.06
2023-03-11T21:15:16.630Z,99054.56
2023-03-11T21:17:45.504Z,99056.28
2023-03-11T21:20:16.752Z,99058.06
2023-03-11T21:22:45.979Z,99060.53
2023-03-11T21:25:14.625Z,99052.94
2023-03-11T21:27:43.205Z,99052.09
2023-03-11T21:30:14.096Z,99055.59
2023-03-11T21:32:42.858Z,99051.50
2023-03-11T21:35:11.816Z,99055.91
2023-03-11T21:37:41.905Z,99056.97
2023-03-11T21:40:13.042Z,99049.44
2023-03-11T21:42:41.848Z,99046.06
2023-03-11T21:45:12.142Z,99053.66
2023-03-11T21:47:41.385Z,99056.28
2023-03-11T21:50:12.136Z,99052.09
2023-03-11T21:52:42.198Z,99046.16
2023-03-11T21:55:11.647Z,99055.47
2023-03-11T21:57:40.283Z,99046.22
2023-03-11T22:00:11.253Z,99037.00
2023-03-11T22:02:40.074Z,99043.09
2023-03-11T22:05:09.318Z,99041.53
2023-03-11T22:07:37.960Z,99049.28
2023-03-11T22:10:09.480Z,99048.47
2023-03-11T22:12:38.478Z,99052.78
2023-03-11T22:15:08.647Z,99054.63
2023-03-11T22:17:37.608Z,99055.66
2023-03-11T22:20:08.125Z,99057.53
2023-03-11T22:22:37.260Z,99060.97
2023-03-11T22:25:08.653Z,99049.25
2023-03-11T22:27:38.537Z,99056.13
2023-03-11T22:30:09.559Z,99051.06
2023-03-11T22:32:38.289Z,99051.00
2023-03-11T22:35:07.943Z,99060.19
2023-03-11T22:37:36.621Z,99052.59
2023-03-11T22:40:09.004Z,99060.34
2023-03-11T22:42:38.080Z,99063.13
2023-03-11T22:45:08.691Z,99062.59
2023-03-11T22:47:37.326Z,99059.28
2023-03-11T22:50:06.695Z,99062.84
2023-03-11T22:52:35.305Z,99063.69
2023-03-11T22:55:03.868Z,99060.19
2023-03-11T22:57:38.673Z,99065.25
2023-03-11T23:00:17.268Z,99055.94
2023-03-11T23:02:46.409Z,99058.56
2023-03-11T23:05:16.769Z,99068.84
2023-03-11T23:07:45.736Z,99065.75
2023-03-11T23:10:16.243Z,99066.03
2023-03-11T23:12:46.739Z,99063.72
2023-03-11T23:15:18.534Z,99067.28
2023-03-11T23:17:47.465Z,99074.06
2023-03-11T23:20:18.364Z,99063.25
2023-03-11T23:22:47.046Z,99067.59
2023-03-11T23:25:17.604Z,99066.72
2023-03-11T23:27:47.814Z,99064.09
2023-03-11T23:30:17.734Z,99067.53
2023-03-11T23:32:46.949Z,99059.94
2023-03-11T23:35:15.630Z,99076.94
2023-03-11T23:37:44.235Z,99072.88
2023-03-11T23:40:14.168Z,99071.38
2023-03-11T23:42:42.844Z,99073.81
2023-03-11T23:45:13.400Z,99067.06
2023-03-11T23:47:42.013Z,99062.78
2023-03-11T23:50:11.958Z,99069.56
2023-03-11T23:52:40.599Z,99071.38
2023-03-11T23:55:10.680Z,99067.94
2023-03-11T23:57:39.456Z,99072.03
